Latest Coastal Weather Observations for Red Rocks Point

IDW60701

Issued at 2:53 am WST Wednesday 22 February 2017 (issued every 10 minutes, with the page automatically refreshed every 10 minutes)

About coastal observations | Map of coastal stations | Coastal observations for WA | Marine services | Other Formats
Station Details ID: 011053 Name: RED ROCKS POINT Lat: -32.20 Lon: 127.53 Height: 3.1 m
Data from the previous 72 hours. | See also: Recent months at Red Rocks Point
Date/Time
WST
Temp
°C
Wind Pressure Rain since
9am
mm
Weather Cloud Vis
km
Sea
Height
m
Swell
Dir  Spd
kts
Gust
kts
hPa Trend Height
m
Period
s
Dir
22/02:30am 17.7 WSW 17 27 1011.7 - 15.6 - - - - - - -
22/02:10am 17.2 W 12 25 1011.5 - 15.6 - - - - - - -
22/02:00am 16.1 WNW 9 16 1011.7 - 15.6 - - - - - - -
22/01:30am 17.6 WSW 16 25 1011.6 - 15.6 - - - - - - -
22/01:00am 17.6 W 15 27 1011.5 - 15.6 - - - - - - -
22/12:40am 17.7 WSW 15 25 1011.4 - 15.6 - - - - - - -
22/12:30am 17.3 W 14 22 1011.4 - 15.6 - - - - - - -
22/12:00am 17.7 WSW 18 29 1011.3 - 15.6 - - - - - - -
 
Date/Time
WST
Temp
°C
Wind Pressure Rain since
9am
mm
Weather Cloud Vis
km
Sea
Height
m
Swell
Dir  Spd
kts
Gust
kts
hPa Trend Height
m
Period
s
Dir
21/11:30pm 18.0 WSW 19 30 1011.4 - 15.6 - - - - - - -
21/11:00pm 18.0 WSW 19 30 1011.5 - 15.6 - - - - - - -
21/10:31pm 18.2 WSW 19 29 1011.5 - 15.6 - - - - - - -
21/10:30pm 18.3 WSW 20 29 1011.5 - 15.6 - - - - - - -
21/10:00pm 18.0 WSW 17 27 1011.7 - 15.6 - - - - - - -
21/09:37pm 18.0 SW 18 28 1011.6 - 15.6 - - - - - - -
21/09:30pm 18.0 SW 18 26 1011.6 - 15.6 - - - - - - -
21/09:00pm 18.0 SW 18 29 1011.5 - 15.6 - - - - - - -
21/08:30pm 17.8 SW 17 27 1011.4 - 15.6 - - - - - - -
21/08:09pm 17.7 SW 20 30 1011.2 - 15.6 - - - - - - -
21/08:00pm 17.8 SW 19 28 1011.0 - 15.6 - - - - - - -
21/07:30pm 17.8 SW 19 29 1010.3 - 15.6 - - - - - - -
21/07:02pm 17.6 SW 21 31 1009.8 - 15.6 - - - - - - -
21/07:00pm 17.6 SW 22 31 1009.7 - 15.6 - - - - - - -
21/06:30pm 17.0 SW 24 37 1009.0 - 15.6 - - - - - - -
21/06:00pm 17.5 SW 23 37 1008.0 - 15.6 Rain - - - - - -
21/05:58pm 17.5 SW 21 37 1007.9 - 15.6 - - - - - - -
21/05:34pm 18.0 SW 19 31 1005.9 - 14.6 - - - - - - -
21/05:30pm 18.1 SW 17 25 1005.6 - 13.8 - - - - - - -
21/05:00pm 18.3 SW 21 31 1005.1 - 4.6 - - - - - - -
21/04:31pm 19.1 SW 20 32 1004.4 - 1.0 - - - - - - -
21/04:30pm 19.1 SW 19 28 1004.3 - 1.0 - - - - - - -
21/04:00pm 20.3 SW 20 28 1004.2 - 0.4 - - - - - - -
21/03:30pm 21.3 SW 21 33 1003.1 - 0.4 - - - - - - -
21/03:00pm 22.3 W 16 30 1002.2 - 0.4 Recent precip. - - - - - -
21/02:56pm 22.8 W 16 39 1002.2 - 0.4 - - - - - - -
21/02:47pm 27.1 NW 15 39 1001.5 - 0.2 - - - - - - -
21/02:30pm 34.4 NW 16 32 1000.1 - 0.0 - - - - - - -
21/02:15pm 35.6 NW 15 27 1000.0 - 0.0 - - - - - - -
21/02:00pm 35.6 NNW 14 23 1000.1 - 0.0 - - - - - - -
21/01:45pm 35.8 NNW 15 26 1000.3 - 0.0 - - - - - - -
21/01:30pm 34.8 NNW 12 22 1000.6 - 0.0 - - - - - - -
21/01:00pm 35.5 NNW 16 27 1001.5 - 0.0 - - - - - - -
21/12:53pm 35.4 NNW 17 27 1001.5 - 0.0 - - - - - - -
21/12:30pm 35.4 NNW 13 23 1001.9 - 0.0 - - - - - - -
21/12:00pm 35.5 NNW 15 25 1002.5 - 0.0 - - - - - - -
21/11:34am 36.1 NNW 16 26 1002.9 - 0.0 - - - - - - -
21/11:30am 36.3 NNW 17 25 1002.8 - 0.0 - - - - - - -
21/11:01am 36.0 NNW 17 27 1003.7 - 0.0 - - - - - - -
21/11:00am 36.2 NNW 17 26 1003.7 - 0.0 - - - - - - -
21/10:55am 36.2 NNW 16 26 1003.8 - 0.0 - - - - - - -
21/10:30am 34.1 NNW 15 21 1004.2 - 0.0 - - - - - - -
21/10:00am 33.0 NNW 13 21 1005.2 - 0.0 - - - - - - -
21/09:30am 31.6 N 15 22 1005.7 - 0.0 - - - - - - -
21/09:00am 31.6 N 16 24 1006.1 - 0.0 - - - - - - -
21/08:30am 29.6 N 12 20 1006.6 - 0.0 - - - - - - -
21/08:00am 28.2 N 15 22 1006.8 - 0.0 - - - - - - -
21/07:30am 26.5 N 12 20 1007.4 - 0.0 - - - - - - -
21/07:00am 23.4 NNE 11 16 1008.0 - 0.0 - - - - - - -
21/06:30am 20.3 NNE 9 13 1008.4 - 0.0 - - - - - - -
21/06:00am 17.9 NNE 8 12 1008.6 - 0.0 - - - - - - -
21/05:30am 16.8 NNE 7 9 1008.7 - 0.0 - - - - - - -
21/05:00am 16.6 NNE 8 10 1008.8 - 0.0 - - - - - - -
21/04:30am 17.1 NE 9 13 1008.9 - 0.0 - - - - - - -
21/04:00am 16.8 NE 11 17 1008.6 - 0.0 - - - - - - -
21/03:30am 16.9 NE 12 17 1008.7 - 0.0 - - - - - - -
21/03:00am 16.0 NNE 10 13 1009.2 - 0.0 - - - - - - -
21/02:30am 15.6 NE 9 11 1009.7 - 0.0 - - - - - - -
21/02:00am 15.7 NE 8 11 1010.2 - 0.0 - - - - - - -
21/01:30am 15.6 NE 7 9 1010.5 - 0.0 - - - - - - -
21/01:00am 16.2 NE 7 8 1010.8 - 0.0 - - - - - - -
21/12:30am 17.2 NE 9 14 1010.8 - 0.0 - - - - - - -
21/12:00am 17.5 NE 10 14 1010.7 - 0.0 - - - - - - -
 
Date/Time
WST
Temp
°C
Wind Pressure Rain since
9am
mm
Weather Cloud Vis
km
Sea
Height
m
Swell
Dir  Spd
kts
Gust
kts
hPa Trend Height
m
Period
s
Dir
20/11:30pm 17.8 NE 11 14 1011.1 - 0.0 - - - - - - -
20/11:00pm 18.1 NE 10 14 1011.4 - 0.0 - - - - - - -
20/10:30pm 18.6 NE 13 17 1011.4 - 0.0 - - - - - - -
20/10:00pm 18.7 NE 12 15 1011.7 - 0.0 - - - - - - -
20/09:30pm 19.0 NE 12 15 1012.1 - 0.0 - - - - - - -
20/09:00pm 19.1 NE 12 16 1012.4 - 0.0 - - - - - - -
20/08:30pm 19.5 NE 13 16 1012.6 - 0.0 - - - - - - -
20/08:00pm 20.1 NE 16 22 1012.8 - 0.0 - - - - - - -
20/07:30pm 20.9 ENE 22 26 1012.7 - 0.0 - - - - - - -
20/07:00pm 21.1 ENE 23 29 1012.3 - 0.0 - - - - - - -
20/06:30pm 21.1 ENE 23 28 1012.1 - 0.0 - - - - - - -
20/06:00pm 21.2 ENE 23 26 1012.1 - 0.0 - - - - - - -
20/05:30pm 21.4 ENE 23 27 1011.8 - 0.0 - - - - - - -
20/05:00pm 21.7 ENE 22 25 1012.0 - 0.0 - - - - - - -
20/04:30pm 22.1 E 21 25 1012.4 - 0.0 - - - - - - -
20/04:00pm 22.4 E 19 23 1012.7 - 0.0 - - - - - - -
20/03:30pm 22.4 E 20 23 1012.5 - 0.0 - - - - - - -
20/03:00pm 22.5 E 18 21 1012.4 - 0.0 - - - - - - -
20/02:30pm 22.4 E 19 21 1012.7 - 0.0 - - - - - - -
20/02:00pm 22.8 E 18 21 1013.0 - 0.0 - - - - - - -
20/01:30pm 22.7 E 17 19 1013.4 - 0.0 - - - - - - -
20/01:00pm 22.7 E 18 20 1013.8 - 0.0 - - - - - - -
20/12:30pm 22.6 E 17 20 1014.1 - 0.0 - - - - - - -
20/12:00pm 22.8 E 17 19 1014.5 - 0.0 - - - - - - -
20/11:30am 23.0 E 17 19 1014.8 - 0.0 - - - - - - -
20/11:00am 24.3 ESE 15 17 1015.3 - 0.0 - - - - - - -
20/10:30am 27.6 NNE 7 11 1015.6 - 0.0 - - - - - - -
20/10:00am 27.1 NNE 8 13 1015.9 - 0.0 - - - - - - -
20/09:30am 25.4 N 9 17 1016.5 - 0.0 - - - - - - -
20/09:00am 24.4 N 9 13 1017.0 - 0.0 - - - - - - -
20/08:30am 22.5 NNE 10 15 1017.3 - 0.0 - - - - - - -
20/08:00am 21.0 NNE 10 14 1017.5 - 0.0 - - - - - - -
20/07:30am 18.9 NNE 11 15 1018.0 - 0.0 - - - - - - -
20/07:00am 16.7 NNE 10 16 1018.1 - 0.0 - - - - - - -
20/06:30am 15.0 N 8 12 1018.3 - 0.0 - - - - - - -
20/06:00am 13.6 N 11 16 1017.6 - 0.0 - - - - - - -
20/05:30am 12.2 NNE 9 13 1017.4 - 0.0 - - - - - - -
20/05:00am 11.6 N 8 11 1017.6 - 0.0 - - - - - - -
20/04:30am 11.9 N 9 13 1017.5 - 0.0 - - - - - - -
20/04:00am 12.4 N 9 11 1017.6 - 0.0 - - - - - - -
20/03:30am 12.9 N 9 11 1017.7 - 0.0 - - - - - - -
20/03:00am 13.3 N 9 11 1017.6 - 0.0 - - - - - - -
20/02:30am 13.2 N 8 10 1017.9 - 0.0 - - - - - - -
20/02:00am 13.6 N 8 9 1017.9 - 0.0 - - - - - - -
20/01:30am 13.6 N 9 11 1017.9 - 0.0 - - - - - - -
20/01:00am 14.1 N 8 12 1018.1 - 0.0 - - - - - - -
20/12:30am 14.9 NNE 9 14 1017.9 - 0.0 - - - - - - -
20/12:00am 15.5 NNE 7 10 1018.3 - 0.0 - - - - - - -
 
Date/Time
WST
Temp
°C
Wind Pressure Rain since
9am
mm
Weather Cloud Vis
km
Sea
Height
m
Swell
Dir  Spd
kts
Gust
kts
hPa Trend Height
m
Period
s
Dir
19/11:30pm 16.2 NE 8 10 1018.4 - 0.0 - - - - - - -
19/11:00pm 17.4 NE 10 18 1018.5 - 0.0 - - - - - - -
19/10:30pm 18.7 E 15 18 1018.9 - 0.0 - - - - - - -
19/10:00pm 18.8 E 16 19 1019.1 - 0.0 - - - - - - -
19/09:30pm 18.9 E 16 19 1019.4 - 0.0 - - - - - - -
19/09:00pm 18.9 E 16 19 1019.6 - 0.0 - - - - - - -
19/08:30pm 18.8 E 17 19 1019.6 - 0.0 - - - - - - -
19/08:00pm 18.8 E 17 20 1019.8 - 0.0 - - - - - - -
19/07:30pm 19.0 E 16 20 1019.8 - 0.0 - - - - - - -
19/07:00pm 18.9 ESE 16 19 1019.6 - 0.0 - - - - - - -
19/06:30pm 19.0 ESE 15 19 1019.6 - 0.0 - - - - - - -
19/06:00pm 19.3 ESE 16 19 1019.3 - 0.0 - - - - - - -
19/05:30pm 19.6 E 16 19 1019.3 - 0.0 - - - - - - -
19/05:00pm 20.0 ESE 15 17 1019.5 - 0.0 - - - - - - -
19/04:30pm 20.5 ESE 15 19 1019.3 - 0.0 - - - - - - -
19/04:00pm 20.6 ESE 15 19 1019.3 - 0.0 - - - - - - -
19/03:30pm 21.0 ESE 14 17 1019.5 - 0.0 - - - - - - -
19/03:00pm 21.4 ESE 13 16 1019.6 - 0.0 - - - - - - -
19/02:30pm 21.6 ESE 14 17 1019.8 - 0.0 - - - - - - -
19/02:00pm 22.0 SE 13 16 1020.1 - 0.0 - - - - - - -
19/01:30pm 21.7 ESE 14 16 1020.4 - 0.0 - - - - - - -
19/01:00pm 21.9 ESE 13 16 1020.6 - 0.0 - - - - - - -
19/12:30pm 22.1 SE 13 17 1021.0 - 0.0 - - - - - - -
19/12:00pm 22.0 SE 12 14 1021.2 - 0.0 - - - - - - -
19/11:30am 22.1 SE 11 15 1021.5 - 0.0 - - - - - - -
19/11:00am 22.1 SE 11 14 1021.7 - 0.0 - - - - - - -
19/10:30am 21.9 ESE 11 14 1022.2 - 0.0 - - - - - - -
19/10:00am 21.2 SE 10 12 1022.6 - 0.0 - - - - - - -
19/09:30am 21.6 ESE 9 11 1023.0 - 0.0 - - - - - - -
19/09:00am 20.9 E 9 13 1023.1 - 0.0 - - - - - - -
19/08:30am 20.1 ENE 7 9 1023.5 - 0.0 - - - - - - -
19/08:00am 19.8 E 5 9 1023.5 - 0.0 - - - - - - -
19/07:30am 19.2 ESE 9 12 1023.5 - 0.0 - - - - - - -
19/07:00am 19.1 ESE 9 13 1023.4 - 0.0 - - - - - - -
19/06:30am 18.7 SE 8 14 1023.0 - 0.0 - - - - - - -
19/06:00am 18.6 ESE 11 15 1022.8 - 0.0 - - - - - - -
19/05:30am 18.3 ESE 10 14 1022.6 - 0.0 - - - - - - -
19/05:00am 18.3 SE 11 13 1022.6 - 0.0 - - - - - - -
19/04:30am 18.3 ESE 11 14 1022.2 - 0.0 - - - - - - -
19/04:00am 18.3 ESE 12 14 1022.1 - 0.0 - - - - - - -
19/03:30am 18.4 ESE 12 15 1022.1 - 0.0 - - - - - - -
19/03:00am 18.6 SE 11 13 1022.0 - 0.0 - - - - - - -

Other Formats:

Comma delimited format used in spreadsheet applications
http://www.bom.gov.au/fwo/IDW60701/IDW60701.94644.axf

JavaScript Object Notation format (JSON) in row-major order
http://www.bom.gov.au/fwo/IDW60701/IDW60701.94644.json